Time;durP1;ratioP1;P1;durP2;ratioP2;P2;SDS_P1;SDS_P2;PMS_P1;PMS_P2;Temp;Humidity;BMP_temperature;BMP_pressure;BME280_temperature;BME280_humidity;BME280_pressure;Samples;Min_cycle;Max_cycle;Signal;HPM_P1;HPM_P2
2023/07/09 00:00:57;;;;;;;10.00;8.70;;;;;;;14.52;66.30;100210.67;217825;1259;140142;-66
2023/07/09 00:06:22;;;;;;;11.10;8.60;;;;;;;14.39;66.26;100207.69;219426;1256;142066;-67
2023/07/09 00:11:26;;;;;;;10.30;7.90;;;;;;;14.35;66.82;100215.46;218366;1255;141759;-67
2023/07/09 00:16:31;;;;;;;8.40;7.50;;;;;;;14.28;67.00;100211.30;218382;1259;140771;-68
2023/07/09 00:21:36;;;;;;;9.60;8.40;;;;;;;14.22;67.10;100214.16;219427;1256;140337;-67
2023/07/09 00:26:41;;;;;;;12.50;8.40;;;;;;;14.23;67.75;100219.70;219586;1256;140613;-68
2023/07/09 00:31:45;;;;;;;11.90;8.20;;;;;;;14.27;68.08;100222.21;217530;1256;140445;-67
2023/07/09 00:36:53;;;;;;;13.50;8.70;;;;;;;14.26;68.20;100220.44;220306;1256;141903;-67
2023/07/09 00:41:58;;;;;;;11.90;7.50;;;;;;;14.12;67.92;100216.96;219809;1256;140203;-69
2023/07/09 00:47:23;;;;;;;7.50;6.90;;;;;;;14.09;68.18;100217.87;219306;1256;140123;-68
2023/07/09 00:52:37;;;;;;;9.40;7.60;;;;;;;14.01;68.24;100217.81;219032;1260;139941;-68
2023/07/09 00:57:44;;;;;;;10.40;7.70;;;;;;;13.92;68.23;100220.63;217990;1256;140511;-67
2023/07/09 01:02:48;;;;;;;10.10;7.30;;;;;;;13.84;68.19;100224.78;219413;1256;141133;-68
2023/07/09 01:07:53;;;;;;;7.00;6.30;;;;;;;13.75;68.18;100228.13;218984;1257;140406;-67
2023/07/09 01:12:57;;;;;;;7.30;6.60;;;;;;;13.65;68.25;100226.73;218115;1257;141437;-67
2023/07/09 01:18:01;;;;;;;7.10;6.60;;;;;;;13.56;68.40;100223.31;218283;1257;140868;-67
2023/07/09 01:23:08;;;;;;;8.30;7.50;;;;;;;13.43;68.46;100225.98;217854;1257;141316;-67
2023/07/09 01:28:13;;;;;;;7.80;7.10;;;;;;;13.37;68.94;100230.44;217980;1257;140947;-65
2023/07/09 01:33:18;;;;;;;9.50;8.70;;;;;;;13.33;69.00;100230.58;218373;1256;140397;-65
2023/07/09 01:38:22;;;;;;;8.20;7.40;;;;;;;13.23;68.99;100228.85;218060;1257;140858;-65
2023/07/09 01:43:28;;;;;;;7.80;7.10;;;;;;;13.10;69.17;100226.77;217934;1259;139934;-66
2023/07/09 01:48:32;;;;;;;8.90;7.20;;;;;;;13.02;69.72;100230.98;218628;1257;141331;-65
2023/07/09 01:53:38;;;;;;;10.20;8.00;;;;;;;13.00;70.02;100230.64;218128;1256;140079;-65
2023/07/09 01:58:43;;;;;;;8.10;7.20;;;;;;;12.99;70.21;100232.52;217574;1260;141949;-67
2023/07/09 02:03:47;;;;;;;10.10;7.00;;;;;;;12.95;69.90;100239.45;219535;1256;140399;-68
2023/07/09 02:08:51;;;;;;;12.50;7.60;;;;;;;12.91;70.07;100235.09;218056;1256;141389;-67
2023/07/09 02:13:54;;;;;;;13.10;9.20;;;;;;;12.88;70.48;100235.30;218996;1257;140464;-66
2023/07/09 02:18:59;;;;;;;8.10;7.30;;;;;;;12.82;70.31;100236.55;218702;1257;140520;-67
2023/07/09 02:24:04;;;;;;;8.00;7.30;;;;;;;12.80;70.36;100242.23;220505;1257;140467;-68
2023/07/09 02:29:08;;;;;;;9.00;8.00;;;;;;;12.72;70.65;100242.17;220166;1256;140359;-67
2023/07/09 02:34:13;;;;;;;6.50;5.90;;;;;;;12.70;70.75;100247.64;218301;1257;140245;-66
2023/07/09 02:39:19;;;;;;;9.20;7.50;;;;;;;12.72;71.23;100248.31;219870;1259;140070;-67
2023/07/09 02:44:23;;;;;;;7.70;6.40;;;;;;;12.75;71.19;100251.50;219282;1257;141750;-65
2023/07/09 02:49:27;;;;;;;6.60;6.10;;;;;;;12.75;71.18;100251.91;219096;1260;140323;-66
2023/07/09 02:54:33;;;;;;;7.90;7.20;;;;;;;12.75;71.19;100252.49;217831;1261;140277;-65
2023/07/09 02:59:38;;;;;;;6.20;5.60;;;;;;;12.76;71.40;100255.36;218691;1261;140250;-70
2023/07/09 03:04:43;;;;;;;7.40;6.60;;;;;;;12.78;71.60;100251.98;217879;1256;141800;-69
2023/07/09 03:09:48;;;;;;;6.40;5.80;;;;;;;12.81;71.82;100255.95;218957;1256;141546;-71
2023/07/09 03:14:52;;;;;;;6.80;6.30;;;;;;;12.85;72.27;100258.98;218733;1256;140419;-71
2023/07/09 03:19:57;;;;;;;6.80;6.30;;;;;;;12.91;72.31;100258.42;217729;1256;140814;-70
2023/07/09 03:25:01;;;;;;;9.30;6.50;;;;;;;12.95;72.20;100266.11;217916;1259;141182;-70
2023/07/09 03:30:07;;;;;;;6.80;6.10;;;;;;;13.01;72.63;100269.34;218241;1257;141034;-70
2023/07/09 03:35:11;;;;;;;7.00;6.40;;;;;;;13.08;72.83;100270.84;217684;1259;140119;-69
2023/07/09 03:40:24;;;;;;;6.80;6.20;;;;;;;13.20;73.05;100269.83;218366;1257;140397;-69
2023/07/09 03:45:28;;;;;;;6.60;6.00;;;;;;;13.34;73.05;100266.20;218573;1257;139713;-70
2023/07/09 03:50:32;;;;;;;7.60;6.60;;;;;;;13.60;73.27;100264.27;218185;1258;140397;-69
2023/07/09 03:55:37;;;;;;;7.10;6.20;;;;;;;13.89;73.32;100269.03;219109;1260;225055;-69
2023/07/09 04:00:42;;;;;;;7.20;6.50;;;;;;;14.16;73.33;100281.63;218752;1259;140545;-68
2023/07/09 04:05:48;;;;;;;28.40;7.90;;;;;;;14.42;73.51;100279.98;217871;1257;140937;-69
2023/07/09 04:10:56;;;;;;;6.90;6.30;;;;;;;14.69;73.29;100285.75;219449;1257;140539;-70
2023/07/09 04:16:01;;;;;;;6.20;5.70;;;;;;;14.90;73.34;100288.81;217728;1260;145724;-67
2023/07/09 04:21:07;;;;;;;6.90;5.30;;;;;;;15.10;73.48;100288.52;219885;1257;140867;-68
2023/07/09 04:26:13;;;;;;;6.00;5.50;;;;;;;15.76;72.95;100287.55;218951;1257;140477;-68
2023/07/09 04:31:18;;;;;;;6.30;5.70;;;;;;;16.54;72.60;100286.36;220093;1259;140407;-68
2023/07/09 04:36:21;;;;;;;5.30;4.20;;;;;;;17.60;71.41;100279.73;220037;1256;141035;-69
2023/07/09 04:41:25;;;;;;;5.80;5.20;;;;;;;17.83;70.61;100276.48;218025;1257;140014;-66
2023/07/09 04:46:30;;;;;;;4.80;4.20;;;;;;;18.70;69.21;100282.92;218639;1261;140513;-67
2023/07/09 04:51:35;;;;;;;6.10;5.00;;;;;;;19.68;67.89;100286.27;217569;1257;140435;-68
2023/07/09 04:56:38;;;;;;;5.00;4.10;;;;;;;20.57;66.15;100285.61;218019;1257;140824;-68
2023/07/09 05:01:42;;;;;;;5.20;4.20;;;;;;;21.01;65.03;100288.73;218349;1257;140603;-66
2023/07/09 05:06:46;;;;;;;4.30;4.00;;;;;;;21.44;63.26;100285.86;217677;1257;140029;-66
2023/07/09 05:11:53;;;;;;;3.70;3.40;;;;;;;21.86;62.22;100283.09;219128;1257;161925;-68
2023/07/09 05:16:57;;;;;;;3.90;3.40;;;;;;;23.96;59.57;100288.02;217749;1261;140403;-66
2023/07/09 05:22:02;;;;;;;4.40;4.00;;;;;;;26.68;56.18;100295.15;217866;1262;140223;-67
2023/07/09 05:27:08;;;;;;;3.30;3.10;;;;;;;30.07;51.76;100297.27;217662;1257;139872;-68
2023/07/09 05:32:13;;;;;;;2.90;2.40;;;;;;;32.95;47.26;100300.77;217713;1257;139579;-69
2023/07/09 05:37:17;;;;;;;;;;;;;;;35.29;43.33;100307.96;218367;1260;140066;-70
2023/07/09 05:42:22;;;;;;;2.50;2.00;;;;;;;37.19;39.39;100312.23;219298;1257;126188;-70
2023/07/09 05:47:27;;;;;;;2.80;2.10;;;;;;;38.97;35.84;100319.09;218794;1260;139302;-70
2023/07/09 05:52:31;;;;;;;4.50;2.60;;;;;;;40.43;32.88;100307.98;218209;1260;140120;-69
2023/07/09 05:57:38;;;;;;;1.70;1.60;;;;;;;41.47;30.28;100310.85;218971;1260;139428;-68
2023/07/09 06:02:43;;;;;;;3.60;2.30;;;;;;;42.23;28.54;100318.55;219254;1257;139227;-69
2023/07/09 06:07:51;;;;;;;10.20;2.30;;;;;;;42.99;27.23;100323.54;217689;1260;139398;-70
2023/07/09 06:13:00;;;;;;;3.90;1.70;;;;;;;43.60;25.64;100319.77;220570;1257;139594;-74
2023/07/09 06:18:05;;;;;;;2.00;1.80;;;;;;;43.79;24.37;100322.23;218948;1257;141124;-75
2023/07/09 06:23:10;;;;;;;2.10;1.90;;;;;;;43.92;23.69;100319.44;218710;1258;139881;-69
2023/07/09 06:28:22;;;;;;;2.10;1.80;;;;;;;43.98;23.11;100329.21;217820;1260;139861;-69
2023/07/09 06:33:27;;;;;;;3.60;1.60;;;;;;;43.96;22.62;100327.34;218842;1257;140267;-69
2023/07/09 06:38:33;;;;;;;3.00;2.00;;;;;;;43.99;22.13;100332.38;218084;1257;139915;-70
2023/07/09 06:43:43;;;;;;;2.10;1.80;;;;;;;44.03;22.07;100331.15;218024;1258;139245;-70
2023/07/09 06:48:47;;;;;;;3.90;2.00;;;;;;;43.88;21.69;100334.65;217710;1260;139390;-71
2023/07/09 06:53:54;;;;;;;2.50;2.00;;;;;;;43.13;21.39;100332.74;217894;1260;139317;-72
2023/07/09 06:59:00;;;;;;;2.20;1.80;;;;;;;42.43;21.83;100332.56;217567;1258;139389;-70
2023/07/09 07:04:05;;;;;;;1.70;1.60;;;;;;;42.67;21.72;100327.81;217472;1257;139537;-69
2023/07/09 07:09:10;;;;;;;2.80;2.10;;;;;;;42.88;21.51;100330.49;217712;1257;140763;-71
2023/07/09 07:14:16;;;;;;;1.80;1.70;;;;;;;42.89;21.38;100334.30;217703;1257;139411;-67
2023/07/09 07:19:21;;;;;;;1.70;1.60;;;;;;;42.61;21.12;100335.98;217583;1258;151527;-69
2023/07/09 07:24:26;;;;;;;1.80;1.40;;;;;;;42.38;21.54;100340.94;218461;1257;139866;-68
2023/07/09 07:29:32;;;;;;;2.40;2.20;;;;;;;41.76;21.52;100339.67;218548;1257;139663;-68
2023/07/09 07:34:39;;;;;;;1.60;1.50;;;;;;;40.85;21.80;100331.90;217694;1260;139401;-68
2023/07/09 07:39:43;;;;;;;1.90;1.80;;;;;;;40.00;22.24;100326.11;217995;1257;140678;-68
2023/07/09 07:44:48;;;;;;;4.90;1.80;;;;;;;39.10;23.06;100328.77;219073;1260;140501;-69
2023/07/09 07:49:54;;;;;;;2.00;1.90;;;;;;;38.37;23.93;100327.31;218869;1257;141037;-70
2023/07/09 07:54:58;;;;;;;7.00;2.70;;;;;;;37.60;24.86;100322.86;218023;1257;139320;-68
2023/07/09 08:00:04;;;;;;;2.10;2.00;;;;;;;36.65;25.77;100323.26;219751;1257;139730;-70
2023/07/09 08:05:10;;;;;;;3.00;1.90;;;;;;;36.14;26.44;100322.33;220448;1256;141482;-69
2023/07/09 08:10:15;;;;;;;2.70;2.50;;;;;;;35.73;26.59;100326.06;220404;1257;140305;-68
2023/07/09 08:15:20;;;;;;;6.00;2.60;;;;;;;35.54;26.77;100319.16;220457;1257;140923;-67
2023/07/09 08:20:25;;;;;;;2.70;2.30;;;;;;;35.21;27.16;100317.86;220418;1257;140014;-68
2023/07/09 08:25:29;;;;;;;3.50;2.30;;;;;;;34.83;27.48;100321.08;219716;1257;141759;-68
2023/07/09 08:30:36;;;;;;;2.60;2.40;;;;;;;34.62;28.19;100320.58;219439;1256;139576;-72
2023/07/09 08:35:51;;;;;;;2.50;2.30;;;;;;;34.37;28.31;100318.29;217547;1257;236437;-66
2023/07/09 08:41:00;;;;;;;3.20;2.10;;;;;;;34.08;28.62;100320.67;219453;1256;141096;-68
2023/07/09 08:46:48;;;;;;;2.70;2.50;;;;;;;33.91;28.41;100320.96;217947;1260;140773;-68
2023/07/09 08:51:54;;;;;;;4.30;2.40;;;;;;;33.70;28.81;100319.42;219272;1257;140393;-67
2023/07/09 08:57:14;;;;;;;2.70;2.50;;;;;;;33.51;29.28;100321.64;217729;1258;139058;-70
2023/07/09 09:02:49;;;;;;;2.20;2.00;;;;;;;33.42;29.29;100319.70;217485;1257;140256;-70
2023/07/09 09:08:27;;;;;;;3.10;2.80;;;;;;;33.41;29.54;100318.81;217657;1257;139753;-67
2023/07/09 09:13:33;;;;;;;3.30;3.00;;;;;;;33.33;29.87;100321.79;217464;1257;139667;-67
2023/07/09 09:18:42;;;;;;;2.70;2.50;;;;;;;33.24;29.76;100318.50;217807;1257;140168;-69
2023/07/09 09:23:53;;;;;;;4.10;2.70;;;;;;;33.06;29.99;100317.05;217645;1259;139193;-69
2023/07/09 09:28:58;;;;;;;5.80;3.10;;;;;;;32.87;29.19;100314.06;218487;1256;140339;-66
2023/07/09 09:34:02;;;;;;;7.00;2.40;;;;;;;32.71;29.09;100316.40;217695;1259;139690;-68
2023/07/09 09:39:10;;;;;;;2.60;2.40;;;;;;;32.50;29.19;100317.69;217758;1257;140027;-68
2023/07/09 09:44:20;;;;;;;2.80;2.60;;;;;;;32.36;30.07;100316.35;218471;1258;140914;-72
2023/07/09 09:49:25;;;;;;;2.40;2.20;;;;;;;32.28;30.26;100318.25;218380;1257;139661;-67
2023/07/09 09:54:31;;;;;;;2.50;2.30;;;;;;;32.12;29.53;100316.20;220146;1256;140332;-72
2023/07/09 09:59:37;;;;;;;2.70;2.50;;;;;;;32.08;29.42;100316.61;219760;1258;139497;-69
2023/07/09 10:04:44;;;;;;;3.10;2.30;;;;;;;32.11;29.50;100315.38;220451;1256;139910;-69
2023/07/09 10:09:55;;;;;;;2.60;2.30;;;;;;;32.01;29.59;100315.05;220448;1256;140641;-69
2023/07/09 10:15:12;;;;;;;1.90;1.80;;;;;;;32.00;29.66;100310.31;219061;1256;139943;-69
2023/07/09 10:20:19;;;;;;;2.10;1.90;;;;;;;32.05;30.18;100307.40;219188;1256;140699;-68
2023/07/09 10:25:48;;;;;;;3.40;2.10;;;;;;;31.87;29.29;100310.81;219025;1256;139188;-69
2023/07/09 10:31:19;;;;;;;2.20;2.00;;;;;;;31.62;29.32;100314.54;219647;1256;139451;-68
2023/07/09 10:36:46;;;;;;;18.00;3.60;;;;;;;31.53;29.41;100321.69;218655;1256;141122;-68
2023/07/09 10:41:52;;;;;;;6.70;2.20;;;;;;;31.64;29.45;100313.17;218453;1256;642042;-68
2023/07/09 10:47:01;;;;;;;3.50;2.90;;;;;;;31.72;29.48;100306.53;218285;1256;139375;-69
2023/07/09 10:52:25;;;;;;;6.40;2.70;;;;;;;31.69;28.94;100307.88;218306;1257;140564;-68
2023/07/09 10:57:56;;;;;;;2.70;2.50;;;;;;;31.77;28.76;100305.53;218072;1256;139484;-69
2023/07/09 11:03:28;;;;;;;3.30;2.20;;;;;;;31.74;28.32;100303.25;218009;1256;139752;-69
2023/07/09 11:08:38;;;;;;;3.60;2.70;;;;;;;31.79;28.30;100305.63;218454;1256;139703;-68
2023/07/09 11:13:54;;;;;;;29.10;4.30;;;;;;;31.74;27.77;100304.14;218439;1258;139334;-68
2023/07/09 11:19:07;;;;;;;2.40;2.30;;;;;;;31.78;28.11;100303.27;217705;1260;141845;-69
2023/07/09 11:24:30;;;;;;;8.00;2.60;;;;;;;31.73;28.06;100303.86;218024;1256;140054;-69
2023/07/09 11:29:46;;;;;;;5.30;2.30;;;;;;;31.59;28.03;100298.90;217961;1260;138832;-69
2023/07/09 11:34:50;;;;;;;2.70;2.30;;;;;;;31.54;27.95;100295.15;217671;1260;139714;-68
2023/07/09 11:40:10;;;;;;;3.00;2.40;;;;;;;31.63;28.50;100295.20;217631;1257;139491;-68
2023/07/09 11:45:19;;;;;;;3.00;2.70;;;;;;;31.60;27.89;100292.30;218215;1256;139851;-69
2023/07/09 11:50:29;;;;;;;8.40;2.80;;;;;;;31.55;27.83;100292.42;217961;1256;139893;-68
2023/07/09 11:55:43;;;;;;;1.90;1.80;;;;;;;31.55;27.74;100289.44;218667;1256;140590;-69
2023/07/09 12:00:54;;;;;;;2.10;2.00;;;;;;;31.61;27.67;100280.02;217755;1257;139820;-68
2023/07/09 12:06:03;;;;;;;3.90;2.00;;;;;;;31.53;27.67;100279.80;219507;1256;139784;-68
2023/07/09 12:11:24;;;;;;;2.80;2.20;;;;;;;31.53;27.49;100280.27;220416;1256;140028;-68
2023/07/09 12:16:36;;;;;;;1.80;1.60;;;;;;;31.53;27.37;100277.58;220414;1256;140178;-68
2023/07/09 12:21:44;;;;;;;2.30;2.10;;;;;;;31.49;27.64;100263.19;218550;1257;139983;-68
2023/07/09 12:27:01;;;;;;;2.30;1.80;;;;;;;31.39;27.22;100266.52;219207;1256;139160;-68
2023/07/09 12:32:17;;;;;;;4.80;1.90;;;;;;;31.32;27.02;100261.09;219983;1256;139884;-69
2023/07/09 12:37:24;;;;;;;2.00;1.80;;;;;;;31.28;26.94;100255.20;218357;1260;139815;-68
2023/07/09 12:42:33;;;;;;;1.90;1.80;;;;;;;31.28;27.45;100249.99;218563;1256;140433;-67
2023/07/09 12:47:37;;;;;;;3.80;1.90;;;;;;;31.28;27.68;100257.06;217972;1257;140326;-68
2023/07/09 12:52:49;;;;;;;1.90;1.80;;;;;;;31.08;27.29;100259.01;219002;1257;138757;-69
2023/07/09 12:57:59;;;;;;;2.70;1.80;;;;;;;30.92;27.49;100252.00;217810;1259;139546;-69
2023/07/09 13:03:14;;;;;;;1.80;1.60;;;;;;;30.89;27.30;100238.80;218963;1256;140810;-69
2023/07/09 13:08:18;;;;;;;17.40;2.90;;;;;;;30.76;27.36;100238.98;217742;1256;140504;-69
2023/07/09 13:13:25;;;;;;;2.00;1.90;;;;;;;30.80;27.88;100233.02;218353;1256;139893;-68
2023/07/09 13:18:30;;;;;;;4.00;1.90;;;;;;;30.73;27.52;100232.63;218608;1256;139289;-68
2023/07/09 13:23:36;;;;;;;2.40;2.00;;;;;;;30.50;27.26;100238.13;218275;1257;139169;-69
2023/07/09 13:28:42;;;;;;;4.20;1.80;;;;;;;30.40;27.32;100240.21;218640;1256;139715;-69
2023/07/09 13:33:58;;;;;;;2.20;2.00;;;;;;;30.35;27.35;100237.17;217888;1257;138902;-69
2023/07/09 13:39:10;;;;;;;2.00;1.60;;;;;;;30.40;26.79;100231.27;217653;1257;140187;-68
2023/07/09 13:44:20;;;;;;;1.30;1.20;;;;;;;30.34;26.67;100227.89;219027;1256;140347;-68
2023/07/09 13:49:27;;;;;;;2.20;1.60;;;;;;;30.29;26.48;100226.71;218046;1256;140158;-68
2023/07/09 13:54:37;;;;;;;2.60;1.50;;;;;;;30.27;26.29;100228.35;219667;1256;142792;-68
2023/07/09 13:59:43;;;;;;;2.00;1.30;;;;;;;30.29;26.03;100220.54;219555;1256;140082;-69
2023/07/09 14:04:48;;;;;;;1.20;1.20;;;;;;;30.36;26.14;100215.83;220584;1256;139568;-71
2023/07/09 14:09:52;;;;;;;3.70;1.70;;;;;;;30.34;25.97;100218.14;218465;1257;141035;-68
2023/07/09 14:15:00;;;;;;;4.30;1.40;;;;;;;30.31;25.91;100217.67;220469;1256;140787;-70
2023/07/09 14:20:04;;;;;;;4.90;1.80;;;;;;;30.34;25.55;100213.50;220226;1255;139285;-70
2023/07/09 14:25:18;;;;;;;1.40;1.30;;;;;;;30.31;25.46;100211.15;217872;1257;139745;-69
2023/07/09 14:30:24;;;;;;;1.10;1.00;;;;;;;30.27;25.43;100207.12;219296;1259;140673;-69
2023/07/09 14:35:31;;;;;;;17.40;2.10;;;;;;;30.23;25.38;100204.14;218785;1257;140162;-67
2023/07/09 14:40:35;;;;;;;2.50;1.70;;;;;;;30.22;25.51;100202.38;218411;1256;139672;-69
2023/07/09 14:45:39;;;;;;;1.40;1.30;;;;;;;30.16;25.56;100205.70;218938;1257;139506;-69
2023/07/09 14:50:44;;;;;;;1.30;1.10;;;;;;;30.04;25.69;100201.20;217722;1256;140217;-68
2023/07/09 14:55:48;;;;;;;1.70;0.90;;;;;;;29.97;25.86;100203.14;217946;1257;140707;-67
2023/07/09 15:00:53;;;;;;;1.20;1.10;;;;;;;29.96;25.98;100201.76;218118;1259;140332;-67
2023/07/09 15:05:59;;;;;;;1.30;1.20;;;;;;;29.86;25.64;100200.00;218552;1257;139380;-67
2023/07/09 15:11:06;;;;;;;4.80;1.10;;;;;;;29.73;25.24;100190.86;217944;1257;140764;-69
2023/07/09 15:16:10;;;;;;;4.00;1.10;;;;;;;29.65;25.81;100191.45;217945;1259;139989;-68
2023/07/09 15:21:16;;;;;;;0.90;0.90;;;;;;;29.54;25.28;100192.79;218197;1256;139417;-69
2023/07/09 15:26:20;;;;;;;2.20;1.10;;;;;;;29.50;25.44;100189.64;218369;1256;139857;-69
2023/07/09 15:31:24;;;;;;;11.50;1.90;;;;;;;29.45;25.61;100189.02;217883;1257;139424;-68
2023/07/09 15:36:31;;;;;;;3.50;1.10;;;;;;;29.37;25.65;100183.42;218875;1257;141055;-68
2023/07/09 15:41:35;;;;;;;1.10;1.10;;;;;;;29.27;25.99;100180.72;219183;1257;140571;-69
2023/07/09 15:46:50;;;;;;;1.00;1.00;;;;;;;29.18;25.94;100179.50;218900;1256;159323;-69
2023/07/09 15:51:57;;;;;;;1.00;1.00;;;;;;;29.15;26.18;100173.08;219527;1256;140613;-69
2023/07/09 15:57:11;;;;;;;2.20;2.00;;;;;;;29.07;26.19;100170.33;220221;1257;139869;-69
2023/07/09 16:02:18;;;;;;;1.00;0.90;;;;;;;29.02;26.67;100170.90;219406;1257;139560;-69
2023/07/09 16:07:26;;;;;;;1.70;1.40;;;;;;;29.01;27.22;100178.63;220469;1256;140584;-70
2023/07/09 16:12:32;;;;;;;1.50;1.40;;;;;;;28.96;26.95;100177.08;220619;1255;142015;-70
2023/07/09 16:17:37;;;;;;;2.80;2.50;;;;;;;28.94;27.01;100172.05;220142;1257;139678;-70
2023/07/09 16:22:50;;;;;;;3.40;1.00;;;;;;;28.90;27.11;100169.34;218021;1257;139776;-69
2023/07/09 16:27:56;;;;;;;1.70;1.60;;;;;;;28.80;27.18;100167.41;218680;1259;139632;-69
2023/07/09 16:33:02;;;;;;;2.80;1.20;;;;;;;28.67;27.37;100157.20;218055;1256;140025;-68
2023/07/09 16:38:19;;;;;;;1.00;1.00;;;;;;;28.56;28.51;100159.36;217670;1257;140233;-68
2023/07/09 16:43:28;;;;;;;1.40;1.20;;;;;;;28.44;28.43;100159.46;218713;1259;139988;-68
2023/07/09 16:48:35;;;;;;;1.00;1.00;;;;;;;28.37;28.25;100156.73;218336;1256;139226;-69
2023/07/09 16:53:40;;;;;;;0.80;0.80;;;;;;;28.26;28.13;100156.13;218296;1256;140727;-68
2023/07/09 16:58:44;;;;;;;1.20;1.10;;;;;;;28.15;28.48;100152.95;217918;1257;139702;-68
2023/07/09 17:03:51;;;;;;;1.50;1.40;;;;;;;28.04;28.34;100156.88;217983;1257;139184;-69
2023/07/09 17:08:59;;;;;;;1.20;1.20;;;;;;;27.94;29.21;100163.59;218158;1256;151567;-68
2023/07/09 17:14:16;;;;;;;1.20;0.90;;;;;;;27.83;29.41;100165.74;220010;1259;139333;-69
2023/07/09 17:19:31;;;;;;;2.40;1.40;;;;;;;27.69;29.72;100166.49;218179;1259;140955;-68
2023/07/09 17:24:42;;;;;;;1.70;1.00;;;;;;;27.56;30.15;100169.85;218727;1260;139752;-67
2023/07/09 17:29:53;;;;;;;1.10;1.00;;;;;;;27.42;30.41;100170.24;218460;1257;139222;-69
2023/07/09 17:35:04;;;;;;;2.70;0.90;;;;;;;27.32;31.03;100173.84;219749;1256;142649;-69
2023/07/09 17:40:24;;;;;;;2.40;1.30;;;;;;;27.19;31.74;100171.88;217586;1259;140860;-68
2023/07/09 17:45:55;;;;;;;1.80;1.30;;;;;;;27.01;32.31;100167.46;218604;1259;140030;-67
2023/07/09 17:51:06;;;;;;;2.40;1.30;;;;;;;26.87;31.73;100162.76;217848;1257;139423;-67
2023/07/09 17:56:34;;;;;;;1.30;1.10;;;;;;;26.67;33.22;100165.05;220484;1256;140006;-69
2023/07/09 18:02:12;;;;;;;1.00;1.00;;;;;;;26.41;32.90;100165.42;220524;1257;139335;-69
2023/07/09 18:07:29;;;;;;;3.30;1.60;;;;;;;26.24;32.94;100168.54;219361;1257;139278;-68
2023/07/09 18:12:37;;;;;;;1.90;1.40;;;;;;;26.02;33.32;100173.19;219138;1256;139094;-68
2023/07/09 18:17:43;;;;;;;2.50;1.60;;;;;;;25.81;34.22;100172.23;219303;1257;140521;-69
2023/07/09 18:22:48;;;;;;;2.00;1.70;;;;;;;25.59;34.95;100170.85;217830;1257;139489;-67
2023/07/09 18:27:57;;;;;;;1.90;1.40;;;;;;;25.32;35.46;100166.19;217969;1257;139076;-68
2023/07/09 18:33:06;;;;;;;2.00;1.40;;;;;;;25.05;36.37;100172.41;218738;1259;140264;-69
2023/07/09 18:38:12;;;;;;;7.20;1.40;;;;;;;24.74;36.85;100175.13;218304;1257;140300;-68
2023/07/09 18:43:21;;;;;;;3.90;1.50;;;;;;;24.45;37.64;100173.13;218990;1257;139508;-69
2023/07/09 18:48:37;;;;;;;3.40;1.40;;;;;;;24.15;38.08;100174.73;217810;1257;139470;-68
2023/07/09 18:53:43;;;;;;;2.10;1.40;;;;;;;23.88;38.87;100178.66;218141;1257;139360;-68
2023/07/09 18:58:48;;;;;;;1.90;1.80;;;;;;;23.62;39.48;100180.20;217731;1257;139591;-68
2023/07/09 19:03:54;;;;;;;2.00;1.20;;;;;;;23.35;39.50;100180.12;218251;1257;141177;-68
2023/07/09 19:09:22;;;;;;;1.80;1.70;;;;;;;23.04;40.19;100176.39;217985;1257;237537;-67
2023/07/09 19:14:33;;;;;;;0.90;0.90;;;;;;;22.75;40.91;100186.64;219001;1259;140021;-68
2023/07/09 19:19:38;;;;;;;3.30;1.30;;;;;;;22.46;41.65;100186.73;218592;1257;139280;-68
2023/07/09 19:24:44;;;;;;;2.70;1.40;;;;;;;22.19;42.75;100188.73;218139;1257;139584;-68
2023/07/09 19:29:49;;;;;;;1.10;1.10;;;;;;;21.90;43.15;100189.94;218963;1256;139930;-67
2023/07/09 19:34:55;;;;;;;3.50;2.80;;;;;;;21.47;43.44;100193.05;219014;1257;139468;-68
2023/07/09 19:39:59;;;;;;;2.50;1.90;;;;;;;21.20;44.63;100193.67;219362;1261;140376;-69
2023/07/09 19:45:04;;;;;;;4.30;1.80;;;;;;;21.01;45.11;100192.69;218935;1256;139913;-67
2023/07/09 19:50:21;;;;;;;2.30;2.10;;;;;;;20.84;45.75;100201.96;219208;1257;139721;-67
2023/07/09 19:55:26;;;;;;;;;;;;;;;20.63;46.08;100205.00;219236;1256;139373;-68
2023/07/09 20:00:30;;;;;;;9.80;1.90;;;;;;;20.34;46.51;100209.48;218210;1256;126096;-68
2023/07/09 20:05:34;;;;;;;18.40;3.20;;;;;;;20.05;47.10;100210.05;219528;1256;139543;-70
2023/07/09 20:10:38;;;;;;;11.00;2.40;;;;;;;19.78;47.58;100215.66;219478;1261;141086;-70
2023/07/09 20:15:42;;;;;;;12.10;2.50;;;;;;;19.58;48.23;100217.81;218816;1256;140285;-70
2023/07/09 20:20:59;;;;;;;7.00;2.50;;;;;;;19.27;48.92;100215.31;218823;1256;140590;-69
2023/07/09 20:26:03;;;;;;;25.60;3.10;;;;;;;19.02;49.64;100217.08;217913;1257;139965;-64
2023/07/09 20:31:19;;;;;;;6.00;2.50;;;;;;;18.87;50.01;100220.56;218130;1257;139582;-66
2023/07/09 20:36:23;;;;;;;5.70;1.90;;;;;;;18.57;50.39;100221.70;219367;1257;139478;-70
2023/07/09 20:41:30;;;;;;;7.20;2.50;;;;;;;18.27;51.06;100229.48;218146;1257;140102;-68
2023/07/09 20:46:36;;;;;;;2.80;1.40;;;;;;;18.08;51.53;100233.52;219260;1256;140777;-72
2023/07/09 20:51:42;;;;;;;3.00;1.50;;;;;;;17.91;51.93;100237.37;218416;1257;139114;-68
2023/07/09 20:56:50;;;;;;;2.90;1.60;;;;;;;17.75;52.39;100240.12;218074;1257;140660;-66
2023/07/09 21:01:54;;;;;;;6.50;2.70;;;;;;;17.65;52.73;100239.79;217863;1257;139406;-66
2023/07/09 21:07:00;;;;;;;2.40;1.20;;;;;;;17.51;52.95;100242.70;218194;1259;140703;-70
2023/07/09 21:12:16;;;;;;;2.40;1.90;;;;;;;17.32;53.33;100241.23;218607;1257;139918;-68
2023/07/09 21:17:22;;;;;;;3.00;2.50;;;;;;;17.20;53.84;100246.38;218453;1257;139556;-68
2023/07/09 21:22:30;;;;;;;2.70;1.90;;;;;;;17.04;54.07;100243.87;218346;1257;140066;-67
2023/07/09 21:27:37;;;;;;;8.30;2.40;;;;;;;16.93;54.69;100240.97;218948;1257;141531;-69
2023/07/09 21:32:48;;;;;;;6.90;2.60;;;;;;;16.84;54.96;100248.69;218374;1257;139693;-67
2023/07/09 21:37:55;;;;;;;10.70;2.40;;;;;;;16.70;55.15;100254.94;219327;1256;140159;-67
2023/07/09 21:43:01;;;;;;;8.40;2.60;;;;;;;16.62;55.62;100268.76;217647;1260;140377;-66
2023/07/09 21:48:12;;;;;;;2.90;2.10;;;;;;;16.47;55.77;100268.66;218772;1260;139671;-72
2023/07/09 21:53:23;;;;;;;2.30;2.10;;;;;;;16.32;55.97;100265.83;220387;1259;140217;-73
2023/07/09 21:58:48;;;;;;;3.90;1.70;;;;;;;16.08;56.46;100258.67;220092;1257;139367;-73
2023/07/09 22:03:53;;;;;;;3.90;2.60;;;;;;;15.91;57.33;100255.38;220365;1260;140064;-67
2023/07/09 22:08:57;;;;;;;3.00;1.80;;;;;;;15.83;57.80;100255.91;219260;1257;141586;-63
2023/07/09 22:14:16;;;;;;;6.20;1.80;;;;;;;15.77;58.18;100263.77;220297;1258;139446;-70
2023/07/09 22:19:24;;;;;;;3.90;1.90;;;;;;;15.72;58.58;100270.33;219787;1257;139726;-70
2023/07/09 22:24:47;;;;;;;3.30;2.30;;;;;;;15.61;58.75;100268.17;217865;1256;140499;-68
2023/07/09 22:29:52;;;;;;;4.70;2.50;;;;;;;15.40;59.18;100264.13;218872;1257;237112;-67
2023/07/09 22:35:03;;;;;;;9.40;2.50;;;;;;;15.26;59.42;100265.91;218415;1259;139670;-66
2023/07/09 22:40:15;;;;;;;3.60;2.40;;;;;;;15.21;59.96;100271.14;218043;1259;669100;-67
2023/07/09 22:45:23;;;;;;;4.10;2.70;;;;;;;15.09;59.88;100262.02;218239;1257;140631;-70
2023/07/09 22:50:35;;;;;;;2.70;2.30;;;;;;;15.01;60.44;100266.39;218403;1257;141338;-70
2023/07/09 22:55:45;;;;;;;4.30;2.20;;;;;;;14.97;60.60;100267.27;218053;1259;141210;-65
2023/07/09 23:00:55;;;;;;;2.70;1.80;;;;;;;14.87;60.81;100273.58;217857;1257;140075;-65
2023/07/09 23:06:14;;;;;;;3.80;2.30;;;;;;;14.72;61.30;100276.39;218987;1260;140716;-69
2023/07/09 23:11:25;;;;;;;2.60;2.30;;;;;;;14.59;61.51;100282.02;217601;1259;139856;-65
2023/07/09 23:16:31;;;;;;;7.40;2.00;;;;;;;14.54;62.11;100283.77;218595;1259;140219;-65
2023/07/09 23:21:36;;;;;;;3.20;2.10;;;;;;;14.40;62.24;100279.48;217749;1257;140862;-69